Oceanside, Washington
Current Conditions -  °F | °C
As of 10:01 AM on Sunday 21 Dec 2014 (Local Time) from KAST Reporting Station
Haze Haze  
Wind Chill: 55°   Ceiling: 1400
Heat Index: 55°   Visibility: 6mi
Dew Point: 51°   Wind: 12mph
Humidity: 86%   Direction: 240°WSW
Pressure: 30.03"   Gusts: 22mph
Location:  46.3832°N, 124.042°W
Report Text: KAST 211801Z AUTO 24010G19KT 6SM BR BKN014 BKN040 OVC050 13/11 A3003 RMK AO2 PRESRR T01280106 $
Loading
Personal Weather Stations






























Interactive Weather Map New forecast layout! Learn more

10-Day Weather Forecast

Advertisements
Track Severe Weather on mobile